createdAt,value
2019-01-22T00:02:15.931Z,-0.50
2019-01-22T00:04:44.259Z,-0.30
2019-01-22T00:07:11.835Z,-0.30
2019-01-22T00:09:39.431Z,-0.30
2019-01-22T00:12:07.007Z,-0.30
2019-01-22T00:14:34.563Z,-0.20
2019-01-22T00:17:02.145Z,-0.20
2019-01-22T00:19:29.702Z,-0.20
2019-01-22T00:21:57.346Z,-0.20
2019-01-22T00:24:24.962Z,-0.20
2019-01-22T00:26:52.504Z,-0.20
2019-01-22T00:29:20.082Z,-0.20
2019-01-22T00:31:47.636Z,-0.20
2019-01-22T00:34:15.224Z,-0.20
2019-01-22T00:36:42.807Z,-0.20
2019-01-22T00:39:10.386Z,-0.30
2019-01-22T00:41:37.971Z,-0.20
2019-01-22T00:44:06.299Z,-0.20
2019-01-22T00:46:33.878Z,-0.20
2019-01-22T00:49:01.443Z,-0.10
2019-01-22T00:51:29.787Z,-0.60
2019-01-22T00:53:57.364Z,-0.60
2019-01-22T00:56:25.872Z,-0.60
2019-01-22T00:58:53.443Z,-0.60
2019-01-22T01:01:21.015Z,-0.60
2019-01-22T01:03:48.570Z,-0.80
2019-01-22T01:06:16.147Z,-0.80
2019-01-22T01:08:43.728Z,-0.80
2019-01-22T01:11:11.315Z,-0.70
2019-01-22T01:13:38.904Z,-0.70
2019-01-22T01:16:06.451Z,-0.80
2019-01-22T01:18:34.037Z,-0.90
2019-01-22T01:21:01.595Z,-0.80
2019-01-22T01:23:29.158Z,-0.80
2019-01-22T01:25:56.745Z,-0.80
2019-01-22T01:28:24.312Z,-0.90
2019-01-22T01:30:51.906Z,-0.90
2019-01-22T01:33:19.464Z,-0.80
2019-01-22T01:35:47.030Z,-0.60
2019-01-22T01:38:14.608Z,-0.40
2019-01-22T01:40:43.185Z,-0.40
2019-01-22T01:43:10.802Z,-0.40
2019-01-22T01:45:39.123Z,-0.50
2019-01-22T01:48:06.702Z,-0.50
2019-01-22T01:50:34.449Z,-0.60
2019-01-22T01:53:03.079Z,-0.60
2019-01-22T01:55:31.430Z,-0.70
2019-01-22T01:57:59.822Z,-0.60
2019-01-22T02:00:27.383Z,-0.60
2019-01-22T02:02:54.931Z,-0.70
2019-01-22T02:05:22.510Z,-0.70
2019-01-22T02:07:50.831Z,-0.60
2019-01-22T02:10:18.429Z,-0.60
2019-01-22T02:12:46.864Z,-0.60
2019-01-22T02:15:20.911Z,-0.50
2019-01-22T02:17:59.003Z,-0.60
2019-01-22T02:20:34.240Z,-0.60
2019-01-22T02:23:13.122Z,-0.40
2019-01-22T02:25:53.407Z,-0.40
2019-01-22T02:28:29.852Z,-0.30
2019-01-22T02:31:08.184Z,-0.30
2019-01-22T02:33:47.634Z,-0.20
2019-01-22T02:36:24.807Z,-0.30
2019-01-22T02:38:59.218Z,-0.30
2019-01-22T02:41:26.764Z,-0.20
2019-01-22T02:44:15.111Z,-0.40
2019-01-22T02:46:47.551Z,-0.50
2019-01-22T02:49:27.998Z,-0.50
2019-01-22T02:54:52.810Z,-0.40
2019-01-22T03:00:42.827Z,-0.60
2019-01-22T03:03:19.175Z,-0.60
2019-01-22T03:05:50.290Z,-0.60
2019-01-22T03:08:24.809Z,-0.70
2019-01-22T03:13:59.267Z,-0.70
2019-01-22T03:19:36.699Z,-0.60
2019-01-22T03:22:38.871Z,-0.40
2019-01-22T03:25:23.059Z,-0.60
2019-01-22T03:27:56.007Z,-0.60
2019-01-22T03:33:32.672Z,-0.80
2019-01-22T03:36:08.624Z,-0.80
2019-01-22T03:38:37.764Z,-0.60
2019-01-22T03:41:06.143Z,-0.70
2019-01-22T03:43:57.075Z,-0.80
2019-01-22T03:46:46.204Z,-0.70
2019-01-22T03:49:19.455Z,-0.60
2019-01-22T03:54:44.095Z,-0.80
2019-01-22T03:57:22.772Z,-0.80
2019-01-22T03:59:51.127Z,-0.70
2019-01-22T04:02:19.472Z,-0.80
2019-01-22T04:04:47.062Z,-0.80
2019-01-22T04:07:14.617Z,-0.70
2019-01-22T04:09:42.219Z,-0.70
2019-01-22T04:12:09.806Z,-0.60
2019-01-22T04:14:37.359Z,-0.80
2019-01-22T04:17:04.938Z,-0.80
2019-01-22T04:19:32.527Z,-0.80
2019-01-22T04:22:00.092Z,-0.70
2019-01-22T04:24:45.243Z,-0.80
2019-01-22T04:27:13.722Z,-0.80
2019-01-22T04:29:54.920Z,-0.80
2019-01-22T04:32:22.551Z,-0.80
2019-01-22T04:34:53.665Z,-0.50
2019-01-22T04:37:37.056Z,-0.60
2019-01-22T04:40:22.416Z,-0.50
2019-01-22T04:43:07.618Z,-0.50
2019-01-22T04:45:49.611Z,-0.50
2019-01-22T04:48:34.850Z,-0.60
2019-01-22T04:51:13.178Z,-0.50
2019-01-22T04:53:46.531Z,-0.60
2019-01-22T04:59:31.389Z,-0.30
2019-01-22T05:05:09.535Z,-0.40
2019-01-22T05:07:37.796Z,-0.40
2019-01-22T05:10:20.023Z,-0.30
2019-01-22T05:12:53.204Z,-0.40
2019-01-22T05:15:30.477Z,-0.40
2019-01-22T05:18:03.963Z,-0.40
2019-01-22T05:20:35.015Z,-0.40
2019-01-22T05:23:14.149Z,-0.40
2019-01-22T05:25:52.181Z,-0.40
2019-01-22T05:28:22.380Z,-0.40
2019-01-22T05:30:50.708Z,-0.50
2019-01-22T05:33:29.114Z,-0.40
2019-01-22T05:39:12.071Z,-0.50
2019-01-22T05:41:58.284Z,-0.50
2019-01-22T05:44:31.551Z,-0.50
2019-01-22T05:47:05.058Z,-0.40
2019-01-22T05:49:54.353Z,-0.40
2019-01-22T05:52:25.504Z,-0.40
2019-01-22T05:54:55.644Z,-0.50
2019-01-22T05:57:23.215Z,-0.50
2019-01-22T05:59:55.145Z,-0.40
2019-01-22T06:02:23.683Z,-0.40
2019-01-22T06:04:51.232Z,-0.40
2019-01-22T06:07:23.285Z,-0.40
2019-01-22T06:10:25.286Z,-0.50
2019-01-22T06:13:20.624Z,-0.50
2019-01-22T06:16:00.670Z,-0.50
2019-01-22T06:18:35.895Z,-0.60
2019-01-22T06:21:19.964Z,-0.70
2019-01-22T06:23:48.468Z,-0.70
2019-01-22T06:26:19.527Z,-0.80
2019-01-22T06:28:52.988Z,-0.70
2019-01-22T06:31:47.012Z,-0.70
2019-01-22T06:37:46.403Z,-0.60
2019-01-22T06:40:14.806Z,-0.70
2019-01-22T06:42:51.257Z,-0.70
2019-01-22T06:48:33.833Z,-0.60
2019-01-22T06:51:27.911Z,-0.60
2019-01-22T06:54:08.156Z,-0.50
2019-01-22T06:59:49.967Z,-0.60
2019-01-22T07:02:32.424Z,-0.70
2019-01-22T07:05:04.961Z,-0.80
2019-01-22T07:10:51.043Z,-0.70
2019-01-22T07:13:41.937Z,-0.60
2019-01-22T07:16:10.308Z,-0.80
2019-01-22T07:18:41.768Z,-0.80
2019-01-22T07:21:32.631Z,-0.80
2019-01-22T07:24:03.967Z,-0.80
2019-01-22T07:26:51.294Z,-0.80
2019-01-22T07:32:53.231Z,-0.60
2019-01-22T07:35:22.454Z,-0.60
2019-01-22T07:37:50.882Z,-0.70
2019-01-22T07:40:26.858Z,-0.70
2019-01-22T07:42:58.045Z,-0.60
2019-01-22T07:45:34.284Z,-0.50
2019-01-22T07:48:02.600Z,-0.50
2019-01-22T07:50:49.830Z,-0.50
2019-01-22T07:53:23.935Z,-0.60
2019-01-22T07:56:07.948Z,-0.40
2019-01-22T07:58:46.146Z,-0.50
2019-01-22T08:01:20.414Z,-0.50
2019-01-22T08:06:58.000Z,-0.40
2019-01-22T08:09:33.442Z,-0.40
2019-01-22T08:12:18.411Z,-0.40
2019-01-22T08:14:54.832Z,-0.50
2019-01-22T08:17:38.662Z,-0.50
2019-01-22T08:20:12.640Z,-0.50
2019-01-22T08:23:01.811Z,-0.50
2019-01-22T08:28:43.445Z,-0.40
2019-01-22T08:34:40.923Z,-0.40
2019-01-22T08:37:17.760Z,-0.30
2019-01-22T08:39:47.170Z,-0.30
2019-01-22T08:42:32.335Z,-0.30
2019-01-22T08:45:10.760Z,-0.30
2019-01-22T08:47:47.907Z,-0.30
2019-01-22T08:50:17.300Z,-0.30
2019-01-22T08:52:44.850Z,-0.20
2019-01-22T08:55:17.282Z,-0.10
2019-01-22T08:57:56.412Z,0.00
2019-01-22T09:00:37.696Z,0.10
2019-01-22T09:03:24.919Z,0.00
2019-01-22T09:08:58.078Z,0.40
2019-01-22T09:11:47.151Z,0.40
2019-01-22T09:14:14.724Z,0.30
2019-01-22T09:16:51.919Z,0.30
2019-01-22T09:19:26.107Z,0.00
2019-01-22T09:22:15.240Z,0.00
2019-01-22T09:24:47.479Z,0.20
2019-01-22T09:27:25.674Z,0.30
2019-01-22T09:30:17.797Z,0.50
2019-01-22T09:32:45.334Z,0.50
2019-01-22T09:38:09.079Z,0.60
2019-01-22T09:40:36.653Z,0.70
2019-01-22T09:43:04.204Z,0.30
2019-01-22T09:45:31.752Z,-0.10
2019-01-22T09:47:59.312Z,0.00
2019-01-22T09:50:26.879Z,0.30
2019-01-22T09:52:54.452Z,0.50
2019-01-22T09:55:22.502Z,0.80
2019-01-22T09:57:50.352Z,0.80
2019-01-22T10:00:17.927Z,0.80
2019-01-22T10:02:45.501Z,1.00
2019-01-22T10:05:13.044Z,1.10
2019-01-22T10:07:40.581Z,1.00
2019-01-22T10:10:12.843Z,0.70
2019-01-22T10:12:40.384Z,0.90
2019-01-22T10:15:09.583Z,1.00
2019-01-22T10:17:37.124Z,1.00
2019-01-22T10:20:06.325Z,1.00
2019-01-22T10:22:33.872Z,1.00
2019-01-22T10:25:02.208Z,0.80
2019-01-22T10:27:29.775Z,0.80
2019-01-22T10:29:57.325Z,0.60
2019-01-22T10:32:24.894Z,0.90
2019-01-22T10:34:52.435Z,1.00
2019-01-22T10:37:19.973Z,1.20
2019-01-22T10:39:47.549Z,1.40
2019-01-22T10:42:15.136Z,1.70
2019-01-22T10:44:42.700Z,1.70
2019-01-22T10:47:10.236Z,1.90
2019-01-22T10:49:37.782Z,1.60
2019-01-22T10:52:05.348Z,1.40
2019-01-22T10:54:32.898Z,1.40
2019-01-22T10:57:00.463Z,1.70
2019-01-22T10:59:28.023Z,2.00
2019-01-22T11:01:55.591Z,1.90
2019-01-22T11:04:23.134Z,1.60
2019-01-22T11:06:50.695Z,1.60
2019-01-22T11:09:18.241Z,1.50
2019-01-22T11:11:45.808Z,1.60
2019-01-22T11:14:13.354Z,1.60
2019-01-22T11:16:40.919Z,1.30
2019-01-22T11:19:08.459Z,1.50
2019-01-22T11:21:36.027Z,1.80
2019-01-22T11:24:03.639Z,1.90
2019-01-22T11:26:31.944Z,1.30
2019-01-22T11:28:59.515Z,1.30
2019-01-22T11:31:27.059Z,1.40
2019-01-22T11:33:54.623Z,1.60
2019-01-22T11:36:22.168Z,1.70
2019-01-22T11:38:49.743Z,1.70
2019-01-22T11:41:17.288Z,1.80
2019-01-22T11:43:44.863Z,1.90
2019-01-22T11:46:12.492Z,2.20
2019-01-22T11:48:40.029Z,2.00
2019-01-22T11:51:09.372Z,1.80
2019-01-22T11:53:36.911Z,1.80
2019-01-22T11:56:04.453Z,1.70
2019-01-22T11:58:32.035Z,1.80
2019-01-22T12:00:59.610Z,2.30
2019-01-22T12:03:27.154Z,2.20
2019-01-22T12:05:54.728Z,1.60
2019-01-22T12:08:22.267Z,2.10
2019-01-22T12:10:49.838Z,2.10
2019-01-22T12:13:17.381Z,2.60
2019-01-22T12:15:44.928Z,2.50
2019-01-22T12:18:12.491Z,2.40
2019-01-22T12:20:40.052Z,2.60
2019-01-22T12:23:07.619Z,2.50
2019-01-22T12:25:35.165Z,2.90
2019-01-22T12:28:02.737Z,3.20
2019-01-22T12:30:31.139Z,3.20
2019-01-22T12:32:58.752Z,3.20
2019-01-22T12:35:26.322Z,3.30
2019-01-22T12:37:53.889Z,3.10
2019-01-22T12:40:21.419Z,3.20
2019-01-22T12:42:48.991Z,3.30
2019-01-22T12:45:16.568Z,3.60
2019-01-22T12:47:44.134Z,3.40
2019-01-22T12:50:13.539Z,3.20
2019-01-22T12:52:40.288Z,3.40
2019-01-22T12:55:07.857Z,3.90
2019-01-22T12:57:35.409Z,3.90
2019-01-22T13:00:02.974Z,3.50
2019-01-22T13:02:31.283Z,3.50
2019-01-22T13:04:58.845Z,3.50
2019-01-22T13:07:26.392Z,3.50
2019-01-22T13:09:53.937Z,3.60
2019-01-22T13:12:21.504Z,3.50
2019-01-22T13:14:49.043Z,3.30
2019-01-22T13:17:16.612Z,3.50
2019-01-22T13:19:44.151Z,3.80
2019-01-22T13:22:12.488Z,3.50
2019-01-22T13:24:40.028Z,3.50
2019-01-22T13:27:07.635Z,3.80
2019-01-22T13:29:35.313Z,3.50
2019-01-22T13:32:02.865Z,3.20
2019-01-22T13:34:30.453Z,3.00
2019-01-22T13:36:58.107Z,3.20
2019-01-22T13:39:25.679Z,2.90
2019-01-22T13:41:53.256Z,3.10
2019-01-22T13:44:20.816Z,3.20
2019-01-22T13:46:48.352Z,3.40
2019-01-22T13:49:15.887Z,3.00
2019-01-22T13:51:43.452Z,3.10
2019-01-22T13:54:11.328Z,3.50
2019-01-22T13:56:38.891Z,3.30
2019-01-22T14:01:40.363Z,3.20
2019-01-22T14:04:07.904Z,3.30
2019-01-22T14:06:35.435Z,3.60
2019-01-22T14:09:03.000Z,4.00
2019-01-22T14:11:30.531Z,4.00
2019-01-22T14:13:58.855Z,4.60
2019-01-22T14:16:26.400Z,4.50
2019-01-22T14:18:54.943Z,4.50
2019-01-22T14:21:22.488Z,4.50
2019-01-22T14:23:50.053Z,4.50
2019-01-22T14:26:17.620Z,4.30
2019-01-22T14:28:45.179Z,4.20
2019-01-22T14:31:13.596Z,3.30
2019-01-22T14:33:41.160Z,3.30
2019-01-22T14:36:08.709Z,3.10
2019-01-22T14:38:36.247Z,2.80
2019-01-22T14:41:03.813Z,2.90
2019-01-22T14:43:31.347Z,3.00
2019-01-22T14:45:58.919Z,3.00
2019-01-22T14:48:26.464Z,2.90
2019-01-22T14:50:54.040Z,2.90
2019-01-22T14:53:21.575Z,3.00
2019-01-22T14:55:49.875Z,2.60
2019-01-22T14:58:17.442Z,2.60
2019-01-22T15:00:45.017Z,2.40
2019-01-22T15:03:12.584Z,2.30
2019-01-22T15:05:40.127Z,2.40
2019-01-22T15:08:08.689Z,2.60
2019-01-22T15:10:36.235Z,2.20
2019-01-22T15:13:03.799Z,2.40
2019-01-22T15:15:31.360Z,2.40
2019-01-22T15:17:59.920Z,2.20
2019-01-22T15:20:27.459Z,2.20
2019-01-22T15:22:55.038Z,2.10
2019-01-22T15:25:22.584Z,1.70
2019-01-22T15:27:50.133Z,1.90
2019-01-22T15:30:18.492Z,1.90
2019-01-22T15:32:46.039Z,1.70
2019-01-22T15:35:13.646Z,1.50
2019-01-22T15:37:41.191Z,1.40
2019-01-22T15:40:09.648Z,1.30
2019-01-22T15:42:37.241Z,1.20
2019-01-22T15:45:06.304Z,1.10
2019-01-22T15:47:32.416Z,1.00
2019-01-22T15:49:59.960Z,0.90
2019-01-22T15:52:27.539Z,0.80
2019-01-22T15:54:55.879Z,0.70
2019-01-22T15:57:24.344Z,0.70
2019-01-22T15:59:51.911Z,0.60
2019-01-22T16:02:19.496Z,0.60
2019-01-22T16:04:47.031Z,0.60
2019-01-22T16:07:14.605Z,0.50
2019-01-22T16:09:42.182Z,0.50
2019-01-22T16:12:09.724Z,0.50
2019-01-22T16:14:37.288Z,0.30
2019-01-22T16:17:04.827Z,0.30
2019-01-22T16:19:32.381Z,0.30
2019-01-22T16:21:59.943Z,0.30
2019-01-22T16:27:01.517Z,0.20
2019-01-22T16:29:29.096Z,0.10
2019-01-22T16:31:56.640Z,0.00
2019-01-22T16:34:24.230Z,-0.10
2019-01-22T16:36:51.807Z,-0.20
2019-01-22T16:39:19.430Z,-0.30
2019-01-22T16:41:46.978Z,-0.40
2019-01-22T16:44:14.520Z,-0.50
2019-01-22T16:46:42.097Z,-0.50
2019-01-22T16:49:09.648Z,-0.60
2019-01-22T16:51:37.222Z,-0.70
2019-01-22T16:54:05.557Z,-0.70
2019-01-22T16:56:33.105Z,-0.70
2019-01-22T16:59:00.654Z,-0.80
2019-01-22T17:01:28.235Z,-0.80
2019-01-22T17:03:55.780Z,-0.90
2019-01-22T17:06:23.351Z,-1.00
2019-01-22T17:08:50.929Z,-0.90
2019-01-22T17:11:18.468Z,-0.90
2019-01-22T17:13:46.048Z,-1.00
2019-01-22T17:16:13.607Z,-0.90
2019-01-22T17:18:41.175Z,-1.00
2019-01-22T17:21:08.719Z,-1.10
2019-01-22T17:23:36.290Z,-1.20
2019-01-22T17:26:04.627Z,-1.20
2019-01-22T17:28:32.175Z,-1.20
2019-01-22T17:30:59.756Z,-1.50
2019-01-22T17:33:27.339Z,-1.40
2019-01-22T17:35:55.660Z,-1.40
2019-01-22T17:38:23.235Z,-1.40
2019-01-22T17:40:50.814Z,-1.40
2019-01-22T17:43:18.351Z,-1.30
2019-01-22T17:45:45.921Z,-1.30
2019-01-22T17:48:13.495Z,-1.30
2019-01-22T17:50:41.803Z,-1.40
2019-01-22T17:53:09.380Z,-1.40
2019-01-22T17:55:37.853Z,-1.40
2019-01-22T17:58:05.422Z,-1.50
2019-01-22T18:00:32.972Z,-1.50
2019-01-22T18:03:00.540Z,-1.50
2019-01-22T18:05:28.096Z,-1.50
2019-01-22T18:07:55.663Z,-1.60
2019-01-22T18:10:23.208Z,-1.70
2019-01-22T18:12:50.779Z,-1.70
2019-01-22T18:15:18.359Z,-1.70
2019-01-22T18:17:45.924Z,-1.70
2019-01-22T18:20:15.999Z,-1.60
2019-01-22T18:22:43.571Z,-1.70
2019-01-22T18:25:11.120Z,-1.80
2019-01-22T18:27:38.683Z,-2.00
2019-01-22T18:30:10.640Z,-2.00
2019-01-22T18:32:38.185Z,-1.90
2019-01-22T18:35:05.756Z,-1.90
2019-01-22T18:37:33.296Z,-2.00
2019-01-22T18:40:00.871Z,-1.90
2019-01-22T18:42:28.415Z,-2.00
2019-01-22T18:44:55.988Z,-2.00
2019-01-22T18:47:23.548Z,-2.00
2019-01-22T18:49:51.096Z,-2.10
2019-01-22T18:52:19.653Z,-2.10
2019-01-22T18:54:47.197Z,-2.00
2019-01-22T18:57:14.891Z,-2.00
2019-01-22T18:59:42.439Z,-2.10
2019-01-22T19:02:11.001Z,-2.10
2019-01-22T19:04:38.552Z,-2.20
2019-01-22T19:07:06.104Z,-2.20
2019-01-22T19:09:33.686Z,-2.30
2019-01-22T19:12:01.262Z,-2.30
2019-01-22T19:14:29.825Z,-2.30
2019-01-22T19:16:57.571Z,-2.40
2019-01-22T19:19:25.142Z,-2.40
2019-01-22T19:21:52.700Z,-2.40
2019-01-22T19:24:20.288Z,-2.50
2019-01-22T19:26:48.864Z,-2.40
2019-01-22T19:29:17.448Z,-2.40
2019-01-22T19:31:45.042Z,-2.40
2019-01-22T19:34:12.615Z,-2.40
2019-01-22T19:36:40.308Z,-2.50
2019-01-22T19:39:08.161Z,-2.60
2019-01-22T19:41:35.710Z,-2.60
2019-01-22T19:44:03.266Z,-2.60
2019-01-22T19:46:30.856Z,-2.70
2019-01-22T19:48:58.412Z,-2.70
2019-01-22T19:51:25.983Z,-2.50
2019-01-22T19:53:53.564Z,-2.60
2019-01-22T19:56:21.110Z,-2.80
2019-01-22T19:58:48.691Z,-2.90
2019-01-22T20:01:17.003Z,-3.00
2019-01-22T20:03:45.534Z,-3.00
2019-01-22T20:06:13.088Z,-3.00
2019-01-22T20:08:40.668Z,-3.00
2019-01-22T20:11:08.215Z,-3.10
2019-01-22T20:13:35.791Z,-3.00
2019-01-22T20:16:03.391Z,-3.10
2019-01-22T20:18:30.975Z,-3.00
2019-01-22T20:20:58.524Z,-3.20
2019-01-22T20:23:26.116Z,-3.10
2019-01-22T20:25:53.663Z,-3.30
2019-01-22T20:28:21.215Z,-3.30
2019-01-22T20:30:49.559Z,-3.10
2019-01-22T20:33:17.148Z,-3.20
2019-01-22T20:35:44.691Z,-3.20
2019-01-22T20:38:12.241Z,-3.40
2019-01-22T20:40:39.839Z,-3.30
2019-01-22T20:43:07.396Z,-3.40
2019-01-22T20:45:35.152Z,-3.40
2019-01-22T20:48:02.709Z,-3.40
2019-01-22T20:50:30.284Z,-3.50
2019-01-22T20:52:57.868Z,-3.50
2019-01-22T20:55:25.416Z,-3.40
2019-01-22T20:57:55.094Z,-3.50
2019-01-22T21:00:21.339Z,-3.50
2019-01-22T21:02:48.928Z,-3.50
2019-01-22T21:05:18.219Z,-3.50
2019-01-22T21:07:45.813Z,-3.40
2019-01-22T21:10:16.072Z,-3.50
2019-01-22T21:12:44.683Z,-3.40
2019-01-22T21:15:12.275Z,-3.60
2019-01-22T21:17:39.823Z,-3.60
2019-01-22T21:20:08.212Z,-3.60
2019-01-22T21:22:36.527Z,-3.70
2019-01-22T21:25:04.108Z,-3.70
2019-01-22T21:27:31.651Z,-3.80
2019-01-22T21:29:59.201Z,-3.80
2019-01-22T21:32:26.769Z,-3.80
2019-01-22T21:34:54.320Z,-3.70
2019-01-22T21:37:21.890Z,-3.90
2019-01-22T21:39:49.441Z,-4.00
2019-01-22T21:42:17.021Z,-4.00
2019-01-22T21:44:44.568Z,-3.90
2019-01-22T21:47:12.143Z,-3.90
2019-01-22T21:49:39.694Z,-3.90
2019-01-22T21:52:07.273Z,-3.90
2019-01-22T21:54:36.643Z,-3.90
2019-01-22T21:59:38.979Z,-4.00
2019-01-22T22:02:06.519Z,-3.90
2019-01-22T22:04:34.091Z,-3.90
2019-01-22T22:07:01.635Z,-3.80
2019-01-22T22:09:29.183Z,-3.90
2019-01-22T22:11:57.770Z,-4.00
2019-01-22T22:14:25.316Z,-3.90
2019-01-22T22:16:53.653Z,-4.10
2019-01-22T22:19:21.212Z,-4.10
2019-01-22T22:21:48.789Z,-4.10
2019-01-22T22:24:16.330Z,-4.20
2019-01-22T22:26:43.912Z,-4.20
2019-01-22T22:29:11.454Z,-4.20
2019-01-22T22:31:39.001Z,-4.20
2019-01-22T22:34:06.577Z,-4.20
2019-01-22T22:36:34.572Z,-4.30
2019-01-22T22:39:02.148Z,-4.30
2019-01-22T22:41:29.692Z,-4.20
2019-01-22T22:43:57.265Z,-4.30
2019-01-22T22:46:24.828Z,-4.30
2019-01-22T22:48:52.399Z,-4.30
2019-01-22T22:51:22.811Z,-4.30
2019-01-22T22:53:52.895Z,-4.30
2019-01-22T22:56:20.503Z,-4.30
2019-01-22T22:58:48.047Z,-4.30
2019-01-22T23:01:15.621Z,-4.40
2019-01-22T23:03:43.168Z,-4.30
2019-01-22T23:06:10.740Z,-4.30
2019-01-22T23:08:38.285Z,-4.30
2019-01-22T23:11:05.843Z,-4.30
2019-01-22T23:13:33.417Z,-4.30
2019-01-22T23:16:00.975Z,-4.30
2019-01-22T23:18:28.551Z,-4.30
2019-01-22T23:20:56.095Z,-4.30
2019-01-22T23:23:23.659Z,-4.30
2019-01-22T23:25:51.199Z,-4.10
2019-01-22T23:28:18.740Z,-4.20
2019-01-22T23:30:46.307Z,-4.40
2019-01-22T23:33:13.853Z,-4.40
2019-01-22T23:35:41.419Z,-4.40
2019-01-22T23:38:08.990Z,-4.50
2019-01-22T23:40:36.566Z,-4.60
2019-01-22T23:43:04.149Z,-4.60
2019-01-22T23:48:05.560Z,-4.60
2019-01-22T23:50:33.124Z,-4.60
2019-01-22T23:53:00.694Z,-4.50
2019-01-22T23:55:28.234Z,-4.40
2019-01-22T23:57:56.091Z,-4.20
